createdAt,value
2023-07-03T00:00:23.079Z,77
2023-07-03T00:01:32.224Z,77
2023-07-03T00:03:50.567Z,77
2023-07-03T00:04:59.782Z,76.5
2023-07-03T00:06:08.939Z,78
2023-07-03T00:07:18.083Z,77
2023-07-03T00:08:27.284Z,78.5
2023-07-03T00:09:36.417Z,78
2023-07-03T00:10:45.638Z,77.5
2023-07-03T00:11:54.808Z,77.5
2023-07-03T00:13:02.963Z,77
2023-07-03T00:14:12.131Z,76.5
2023-07-03T00:15:21.335Z,77
2023-07-03T00:16:30.483Z,78
2023-07-03T00:17:38.676Z,77
2023-07-03T00:18:46.855Z,77.5
2023-07-03T00:19:56.066Z,77.5
2023-07-03T00:21:05.230Z,79
2023-07-03T00:22:14.372Z,78.5
2023-07-03T00:23:23.557Z,78
2023-07-03T00:24:32.730Z,78
2023-07-03T00:25:41.884Z,79
2023-07-03T00:26:51.066Z,77.5
2023-07-03T00:28:00.232Z,79.5
2023-07-03T00:29:09.413Z,79
2023-07-03T00:30:18.588Z,78
2023-07-03T00:31:27.769Z,78
2023-07-03T00:32:36.950Z,78.5
2023-07-03T00:33:45.117Z,78
2023-07-03T00:34:54.404Z,78.5
2023-07-03T00:36:03.463Z,79.5
2023-07-03T00:37:12.653Z,79.5
2023-07-03T00:38:21.804Z,79.5
2023-07-03T00:39:30.983Z,78.5
2023-07-03T00:40:39.233Z,79.5
2023-07-03T00:41:47.409Z,80.5
2023-07-03T00:42:55.589Z,78.5
2023-07-03T00:44:04.775Z,80.5
2023-07-03T00:45:13.888Z,80
2023-07-03T00:46:23.060Z,81
2023-07-03T00:47:32.267Z,80
2023-07-03T00:48:41.430Z,80.5
2023-07-03T00:49:50.586Z,80
2023-07-03T00:50:59.857Z,82
2023-07-03T00:52:08.939Z,82
2023-07-03T00:54:27.277Z,81
2023-07-03T00:55:36.438Z,80.5
2023-07-03T00:56:45.684Z,82
2023-07-03T00:57:53.830Z,79.5
2023-07-03T00:59:02.964Z,80
2023-07-03T01:00:12.164Z,80
2023-07-03T01:01:21.331Z,80
2023-07-03T01:02:30.493Z,80
2023-07-03T01:03:39.690Z,79
2023-07-03T01:04:48.833Z,79.5
2023-07-03T01:05:57.043Z,79
2023-07-03T01:07:05.245Z,79.5
2023-07-03T01:09:23.569Z,79
2023-07-03T01:10:32.730Z,80.5
2023-07-03T01:11:41.913Z,80.5
2023-07-03T01:12:51.094Z,79
2023-07-03T01:14:00.254Z,79
2023-07-03T01:15:09.420Z,79
2023-07-03T01:16:18.590Z,80
2023-07-03T01:17:27.781Z,79
2023-07-03T01:18:36.951Z,79.5
2023-07-03T01:19:46.142Z,79
2023-07-03T01:20:55.333Z,79.5
2023-07-03T01:22:03.487Z,79.5
2023-07-03T01:23:12.695Z,79.5
2023-07-03T01:24:21.818Z,79.5
2023-07-03T01:26:40.211Z,79.5
2023-07-03T01:27:48.356Z,78.5
2023-07-03T01:28:56.551Z,78.5
2023-07-03T01:30:05.707Z,77.5
2023-07-03T01:31:14.889Z,78.5
2023-07-03T01:32:24.068Z,79.5
2023-07-03T01:33:33.276Z,79
2023-07-03T01:34:42.407Z,79
2023-07-03T01:35:51.581Z,78.5
2023-07-03T01:37:00.744Z,78.5
2023-07-03T01:38:09.930Z,78
2023-07-03T01:40:27.320Z,79.5
2023-07-03T01:42:44.651Z,79.5
2023-07-03T01:43:52.841Z,78.5
2023-07-03T01:45:01.032Z,79
2023-07-03T01:46:10.190Z,80
2023-07-03T01:47:19.408Z,79
2023-07-03T01:49:37.718Z,78.5
2023-07-03T01:50:46.892Z,79
2023-07-03T01:51:56.080Z,79
2023-07-03T01:53:05.243Z,78
2023-07-03T01:54:14.416Z,80.5
2023-07-03T01:55:23.580Z,78.5
2023-07-03T01:56:32.745Z,79.5
2023-07-03T01:57:41.924Z,80
2023-07-03T01:58:51.097Z,79.5
2023-07-03T01:59:59.337Z,78.5
2023-07-03T02:01:08.452Z,78.5
2023-07-03T02:02:17.630Z,79.5
2023-07-03T02:03:26.798Z,80
2023-07-03T02:04:35.968Z,78.5
2023-07-03T02:05:45.137Z,77.5
2023-07-03T02:06:54.332Z,78
2023-07-03T02:08:02.503Z,78
2023-07-03T02:09:10.695Z,78
2023-07-03T02:11:29.069Z,78
2023-07-03T02:12:38.216Z,78.5
2023-07-03T02:13:47.404Z,77.5
2023-07-03T02:14:56.594Z,78.5
2023-07-03T02:16:05.728Z,77.5
2023-07-03T02:17:14.902Z,78
2023-07-03T02:18:24.080Z,78.5
2023-07-03T02:19:33.303Z,78
2023-07-03T02:20:42.474Z,77.5
2023-07-03T02:21:51.592Z,77.5
2023-07-03T02:23:00.763Z,78
2023-07-03T02:24:08.978Z,78
2023-07-03T02:26:27.282Z,79
2023-07-03T02:27:35.494Z,77.5
2023-07-03T02:28:43.669Z,77
2023-07-03T02:29:52.844Z,78.5
2023-07-03T02:31:02.014Z,78
2023-07-03T02:32:11.198Z,77.5
2023-07-03T02:33:20.366Z,78.5
2023-07-03T02:34:29.546Z,78.5
2023-07-03T02:35:38.830Z,78.5
2023-07-03T02:36:47.877Z,77
2023-07-03T02:37:57.056Z,78
2023-07-03T02:39:05.263Z,77
2023-07-03T02:41:22.600Z,77.5
2023-07-03T02:42:31.800Z,77.5
2023-07-03T02:43:40.997Z,76.5
2023-07-03T02:44:50.113Z,77
2023-07-03T02:45:59.289Z,77.5
2023-07-03T02:47:08.474Z,78
2023-07-03T02:48:17.651Z,76.5
2023-07-03T02:49:26.876Z,77.5
2023-07-03T02:50:35.987Z,77.5
2023-07-03T02:51:45.157Z,79
2023-07-03T02:52:54.337Z,77
2023-07-03T02:54:03.511Z,79
2023-07-03T02:55:11.693Z,78
2023-07-03T02:56:20.881Z,77.5
2023-07-03T02:57:30.105Z,77
2023-07-03T02:58:39.227Z,78
2023-07-03T02:59:48.382Z,78.5
2023-07-03T03:00:57.555Z,78
2023-07-03T03:02:06.728Z,77
2023-07-03T03:03:14.925Z,77
2023-07-03T03:04:23.137Z,78
2023-07-03T03:05:32.292Z,78.5
2023-07-03T03:06:41.462Z,77
2023-07-03T03:07:50.627Z,77
2023-07-03T03:08:59.816Z,78
2023-07-03T03:10:08.977Z,77
2023-07-03T03:11:18.144Z,76.5
2023-07-03T03:12:27.323Z,76.5
2023-07-03T03:13:36.499Z,77
2023-07-03T03:15:54.847Z,77
2023-07-03T03:17:04.022Z,77.5
2023-07-03T03:18:13.185Z,78
2023-07-03T03:19:21.379Z,78
2023-07-03T03:20:30.544Z,78
2023-07-03T03:21:39.718Z,77.5
2023-07-03T03:22:48.903Z,78
2023-07-03T03:23:58.169Z,78.5
2023-07-03T03:26:16.472Z,79.5
2023-07-03T03:27:25.618Z,78
2023-07-03T03:28:33.777Z,78
2023-07-03T03:29:41.979Z,79.5
2023-07-03T03:30:50.188Z,79.5
2023-07-03T03:31:59.516Z,78
2023-07-03T03:33:08.500Z,78
2023-07-03T03:34:17.702Z,80
2023-07-03T03:35:26.882Z,80
2023-07-03T03:36:36.030Z,78.5
2023-07-03T03:37:45.222Z,78.5
2023-07-03T03:38:54.380Z,78.5
2023-07-03T03:40:03.550Z,80
2023-07-03T03:41:12.735Z,80
2023-07-03T03:42:21.904Z,78.5
2023-07-03T03:43:31.138Z,80
2023-07-03T03:44:40.272Z,78
2023-07-03T03:46:57.641Z,79.5
2023-07-03T03:48:06.801Z,78.5
2023-07-03T03:49:14.982Z,79
2023-07-03T03:50:24.150Z,79.5
2023-07-03T03:51:33.385Z,80.5
2023-07-03T03:52:42.489Z,80
2023-07-03T03:53:50.678Z,80
2023-07-03T03:54:58.875Z,80
2023-07-03T03:56:08.046Z,78.5
2023-07-03T03:57:17.342Z,79.5
2023-07-03T03:58:26.388Z,79.5
2023-07-03T03:59:35.551Z,81
2023-07-03T04:00:44.736Z,79.5
2023-07-03T04:01:53.949Z,79.5
2023-07-03T04:03:03.134Z,79
2023-07-03T04:04:12.294Z,80.5
2023-07-03T04:05:21.441Z,79.5
2023-07-03T04:06:30.651Z,79.5
2023-07-03T04:07:39.780Z,79.5
2023-07-03T04:08:48.955Z,80.5
2023-07-03T04:09:57.245Z,81
2023-07-03T04:11:06.386Z,80
2023-07-03T04:12:15.477Z,80
2023-07-03T04:13:24.722Z,80.5
2023-07-03T04:14:33.822Z,80.5
2023-07-03T04:15:43.008Z,80.5
2023-07-03T04:16:52.173Z,81
2023-07-03T04:18:01.391Z,81.5
2023-07-03T04:19:10.559Z,82
2023-07-03T04:20:18.718Z,80.5
2023-07-03T04:21:26.906Z,81
2023-07-03T04:22:35.090Z,81.5
2023-07-03T04:23:44.319Z,81.5
2023-07-03T04:24:53.479Z,80.5
2023-07-03T04:26:02.616Z,81.5
2023-07-03T04:27:11.801Z,82
2023-07-03T04:28:20.975Z,80
2023-07-03T04:29:30.170Z,82
2023-07-03T04:30:39.307Z,80.5
2023-07-03T04:31:48.480Z,80.5
2023-07-03T04:32:57.646Z,81
2023-07-03T04:34:06.825Z,81.5
2023-07-03T04:35:15.998Z,80
2023-07-03T04:36:25.228Z,80
2023-07-03T04:38:42.523Z,81
2023-07-03T04:39:51.842Z,81.5
2023-07-03T04:41:00.915Z,82
2023-07-03T04:42:10.045Z,81
2023-07-03T04:43:19.222Z,81.5
2023-07-03T04:44:28.381Z,82.5
2023-07-03T04:45:36.567Z,80.5
2023-07-03T04:46:44.934Z,82
2023-07-03T04:47:54.058Z,80
2023-07-03T04:49:03.113Z,81.5
2023-07-03T04:50:12.314Z,80
2023-07-03T04:51:21.464Z,81
2023-07-03T04:52:30.636Z,80
2023-07-03T04:53:39.860Z,82.5
2023-07-03T04:54:48.979Z,81.5
2023-07-03T04:55:58.162Z,82
2023-07-03T04:57:07.319Z,82.5
2023-07-03T04:58:16.493Z,81
2023-07-03T04:59:25.686Z,82.5
2023-07-03T05:00:34.875Z,81
2023-07-03T05:01:43.126Z,81
2023-07-03T05:02:52.366Z,82
2023-07-03T05:04:01.484Z,81.5
2023-07-03T05:05:10.540Z,82
2023-07-03T05:06:19.755Z,84.5
2023-07-03T05:07:28.884Z,83
2023-07-03T05:08:37.098Z,83.5
2023-07-03T05:09:45.339Z,82.5
2023-07-03T05:10:54.505Z,84
2023-07-03T05:12:03.614Z,83
2023-07-03T05:13:12.922Z,83
2023-07-03T05:14:22.028Z,83.5
2023-07-03T05:15:31.219Z,83
2023-07-03T05:16:40.327Z,84.5
2023-07-03T05:17:49.489Z,83.5
2023-07-03T05:18:58.678Z,84
2023-07-03T05:20:07.839Z,83
2023-07-03T05:21:17.087Z,82.5
2023-07-03T05:22:26.203Z,83.5
2023-07-03T05:24:44.549Z,84
2023-07-03T05:25:52.718Z,82.5
2023-07-03T05:27:01.884Z,82.5
2023-07-03T05:28:11.152Z,82.5
2023-07-03T05:29:20.259Z,84.5
2023-07-03T05:30:29.545Z,82
2023-07-03T05:31:38.595Z,84
2023-07-03T05:32:46.787Z,84
2023-07-03T05:33:54.976Z,83
2023-07-03T05:35:04.135Z,82
2023-07-03T05:36:13.324Z,82.5
2023-07-03T05:37:22.511Z,83.5
2023-07-03T05:38:31.764Z,83
2023-07-03T05:39:40.817Z,83
2023-07-03T05:40:49.983Z,83.5
2023-07-03T05:41:59.240Z,83
2023-07-03T05:43:08.349Z,83.5
2023-07-03T05:44:17.532Z,83.5
2023-07-03T05:45:26.817Z,83.5
2023-07-03T05:46:35.849Z,83.5
2023-07-03T05:47:45.114Z,84
2023-07-03T05:48:53.215Z,84.5
2023-07-03T05:51:11.689Z,84.5
2023-07-03T05:52:20.734Z,84
2023-07-03T05:53:30.021Z,86.5
2023-07-03T05:54:39.078Z,85
2023-07-03T05:55:48.249Z,85
2023-07-03T05:56:56.465Z,85
2023-07-03T05:58:04.637Z,84
2023-07-03T05:59:12.840Z,85.5
2023-07-03T06:00:22.170Z,85
2023-07-03T06:01:30.332Z,85
2023-07-03T06:02:39.461Z,84.5
2023-07-03T06:03:48.582Z,84
2023-07-03T06:04:57.953Z,83
2023-07-03T06:06:06.977Z,83
2023-07-03T06:07:16.114Z,82
2023-07-03T06:08:25.272Z,83.5
2023-07-03T06:09:34.431Z,81
2023-07-03T06:10:43.764Z,82.5
2023-07-03T06:11:52.811Z,82.5
2023-07-03T06:13:02.104Z,81.5
2023-07-03T06:14:11.156Z,80
2023-07-03T06:15:20.266Z,81
2023-07-03T06:16:28.719Z,80.5
2023-07-03T06:17:37.798Z,79.5
2023-07-03T06:18:46.936Z,80.5
2023-07-03T06:19:56.101Z,79.5
2023-07-03T06:21:05.231Z,80
2023-07-03T06:22:14.352Z,80.5
2023-07-03T06:23:23.499Z,81
2023-07-03T06:24:32.657Z,81
2023-07-03T06:25:41.915Z,80.5
2023-07-03T06:26:51.060Z,81
2023-07-03T06:28:00.328Z,81.5
2023-07-03T06:29:09.354Z,82.5
2023-07-03T06:30:18.513Z,81.5
2023-07-03T06:31:27.684Z,80.5
2023-07-03T06:32:35.977Z,79.5
2023-07-03T06:33:45.055Z,80
2023-07-03T06:34:54.217Z,79.5
2023-07-03T06:36:03.409Z,80
2023-07-03T06:37:12.639Z,79.5
2023-07-03T06:38:21.830Z,79.5
2023-07-03T06:39:30.992Z,79
2023-07-03T06:40:40.188Z,79
2023-07-03T06:41:49.369Z,79.5
2023-07-03T06:42:58.505Z,80
2023-07-03T06:44:07.691Z,79.5
2023-07-03T06:45:16.840Z,80.5
2023-07-03T06:46:25.977Z,79.5
2023-07-03T06:47:34.140Z,80.5
2023-07-03T06:48:43.323Z,80
2023-07-03T06:49:52.566Z,80
2023-07-03T06:51:01.647Z,79
2023-07-03T06:52:10.872Z,79.5
2023-07-03T06:53:20.022Z,79
2023-07-03T06:54:29.254Z,80
2023-07-03T06:55:38.376Z,79.5
2023-07-03T06:56:47.511Z,79.5
2023-07-03T06:57:56.806Z,78.5
2023-07-03T06:59:05.863Z,80
2023-07-03T07:00:15.072Z,79
2023-07-03T07:01:24.209Z,78
2023-07-03T07:03:42.656Z,80.5
2023-07-03T07:04:50.899Z,80
2023-07-03T07:05:58.960Z,80.5
2023-07-03T07:07:07.150Z,81.5
2023-07-03T07:08:16.294Z,82
2023-07-03T07:09:25.508Z,81.5
2023-07-03T07:10:34.636Z,80.5
2023-07-03T07:11:43.807Z,80.5
2023-07-03T07:12:52.976Z,80.5
2023-07-03T07:14:02.172Z,80
2023-07-03T07:15:11.334Z,80.5
2023-07-03T07:16:20.498Z,80.5
2023-07-03T07:17:29.676Z,80.5
2023-07-03T07:18:38.844Z,81
2023-07-03T07:19:48.034Z,80
2023-07-03T07:20:57.192Z,79.5
2023-07-03T07:22:05.405Z,80.5
2023-07-03T07:23:14.564Z,79.5
2023-07-03T07:24:23.768Z,81
2023-07-03T07:25:32.896Z,79.5
2023-07-03T07:26:42.083Z,79
2023-07-03T07:27:51.322Z,79.5
2023-07-03T07:28:59.562Z,78
2023-07-03T07:30:07.691Z,78.5
2023-07-03T07:31:16.913Z,78.5
2023-07-03T07:32:26.070Z,78.5
2023-07-03T07:33:35.149Z,79.5
2023-07-03T07:35:53.680Z,78.5
2023-07-03T07:37:02.813Z,80
2023-07-03T07:38:11.827Z,79.5
2023-07-03T07:39:21.115Z,78
2023-07-03T07:40:29.209Z,79.5
2023-07-03T07:41:38.453Z,77.5
2023-07-03T07:42:47.663Z,78.5
2023-07-03T07:43:56.757Z,77
2023-07-03T07:45:05.945Z,76
2023-07-03T07:46:15.144Z,76.5
2023-07-03T07:47:24.315Z,76
2023-07-03T07:48:33.486Z,76
2023-07-03T07:49:42.620Z,75
2023-07-03T07:50:51.798Z,75
2023-07-03T07:52:01.122Z,74.5
2023-07-03T07:53:09.217Z,74
2023-07-03T07:54:18.445Z,75.5
2023-07-03T07:55:27.509Z,77
2023-07-03T07:56:36.762Z,78
2023-07-03T07:57:45.907Z,77.5
2023-07-03T07:58:54.168Z,77.5
2023-07-03T08:00:03.339Z,77
2023-07-03T08:01:12.429Z,77.5
2023-07-03T08:02:21.537Z,78.5
2023-07-03T08:03:30.802Z,77
2023-07-03T08:04:40.016Z,78.5
2023-07-03T08:05:49.024Z,79.5
2023-07-03T08:06:58.352Z,78.5
2023-07-03T08:08:07.540Z,78.5
2023-07-03T08:09:16.717Z,77
2023-07-03T08:10:25.775Z,79
2023-07-03T08:11:34.941Z,79
2023-07-03T08:12:44.091Z,79
2023-07-03T08:13:53.250Z,80.5
2023-07-03T08:15:01.566Z,79
2023-07-03T08:16:10.668Z,78.5
2023-07-03T08:17:18.808Z,78
2023-07-03T08:18:27.004Z,80
2023-07-03T08:19:35.208Z,78.5
2023-07-03T08:20:44.496Z,79.5
2023-07-03T08:21:53.659Z,80
2023-07-03T08:23:02.701Z,78.5
2023-07-03T08:24:12.069Z,80
2023-07-03T08:25:21.048Z,77.5
2023-07-03T08:26:30.209Z,76.5
2023-07-03T08:27:39.511Z,78
2023-07-03T08:28:48.550Z,76
2023-07-03T08:29:57.739Z,77.5
2023-07-03T08:31:06.980Z,76.5
2023-07-03T08:32:16.086Z,76
2023-07-03T08:33:25.302Z,77
2023-07-03T08:34:33.507Z,76.5
2023-07-03T08:35:42.611Z,77.5
2023-07-03T08:36:51.783Z,78
2023-07-03T08:38:00.945Z,77
2023-07-03T08:39:10.132Z,77
2023-07-03T08:40:19.377Z,77
2023-07-03T08:41:27.648Z,76
2023-07-03T08:42:35.799Z,76
2023-07-03T08:43:43.970Z,76.5
2023-07-03T08:44:53.197Z,78
2023-07-03T08:46:02.307Z,77
2023-07-03T08:47:11.547Z,76
2023-07-03T08:48:20.609Z,76.5
2023-07-03T08:49:29.725Z,75
2023-07-03T08:50:38.927Z,76.5
2023-07-03T08:51:48.175Z,76
2023-07-03T08:52:57.254Z,75
2023-07-03T08:54:06.502Z,75
2023-07-03T08:55:15.591Z,74.5
2023-07-03T08:56:24.781Z,76
2023-07-03T08:57:33.993Z,73
2023-07-03T08:58:42.203Z,74
2023-07-03T08:59:51.295Z,74.5
2023-07-03T09:01:00.542Z,74
2023-07-03T09:02:09.768Z,73.5
2023-07-03T09:03:18.946Z,72
2023-07-03T09:04:28.088Z,74.5
2023-07-03T09:05:36.323Z,74.5
2023-07-03T09:06:44.610Z,74
2023-07-03T09:07:53.707Z,74.5
2023-07-03T09:09:02.853Z,74.5
2023-07-03T09:10:11.965Z,72.5
2023-07-03T09:11:21.113Z,72
2023-07-03T09:12:30.379Z,72.5
2023-07-03T09:13:39.402Z,72
2023-07-03T09:14:48.749Z,71
2023-07-03T09:15:57.929Z,72
2023-07-03T09:17:06.925Z,72
2023-07-03T09:18:16.191Z,71
2023-07-03T09:19:25.404Z,69.5
2023-07-03T09:20:34.447Z,71
2023-07-03T09:21:42.672Z,67.5
2023-07-03T09:22:51.803Z,68
2023-07-03T09:24:00.973Z,67
2023-07-03T09:25:10.240Z,68
2023-07-03T09:27:28.478Z,68.5
2023-07-03T09:28:37.726Z,70
2023-07-03T09:29:47.001Z,71
2023-07-03T09:30:55.100Z,68.5
2023-07-03T09:33:12.404Z,69.5
2023-07-03T09:34:21.579Z,69.5
2023-07-03T09:35:30.728Z,69.5
2023-07-03T09:36:40.005Z,70.5
2023-07-03T09:37:49.091Z,71.5
2023-07-03T09:38:58.253Z,71.5
2023-07-03T09:40:07.458Z,71
2023-07-03T09:41:16.657Z,70
2023-07-03T09:42:25.764Z,70.5
2023-07-03T09:43:35.013Z,70
2023-07-03T09:44:44.196Z,71
2023-07-03T09:45:53.366Z,69.5
2023-07-03T09:47:01.532Z,70
2023-07-03T09:48:10.666Z,70.5
2023-07-03T09:49:19.883Z,70
2023-07-03T09:50:28.994Z,70
2023-07-03T09:51:38.182Z,70.5
2023-07-03T09:52:47.335Z,71
2023-07-03T09:53:56.566Z,70.5
2023-07-03T09:55:04.700Z,71.5
2023-07-03T09:56:12.889Z,69
2023-07-03T09:57:21.105Z,67
2023-07-03T09:59:38.484Z,69
2023-07-03T10:00:47.615Z,67.5
2023-07-03T10:01:56.803Z,67
2023-07-03T10:03:05.966Z,64.5
2023-07-03T10:04:15.134Z,66.5
2023-07-03T10:05:24.317Z,66.5
2023-07-03T10:06:33.492Z,64
2023-07-03T10:07:42.669Z,64
2023-07-03T10:08:51.842Z,65.5
2023-07-03T10:10:00.996Z,62
2023-07-03T10:11:10.178Z,65
2023-07-03T10:12:19.361Z,65.5
2023-07-03T10:13:27.683Z,66
2023-07-03T10:14:36.705Z,64
2023-07-03T10:15:45.952Z,66
2023-07-03T10:16:55.257Z,65.5
2023-07-03T10:18:04.399Z,66.5
2023-07-03T10:19:13.677Z,65
2023-07-03T10:20:22.760Z,65.5
2023-07-03T10:21:31.916Z,68
2023-07-03T10:22:40.914Z,68.5
2023-07-03T10:23:50.085Z,67.5
2023-07-03T10:24:59.268Z,67.5
2023-07-03T10:26:07.449Z,67
2023-07-03T10:27:15.647Z,67
2023-07-03T10:28:24.810Z,67
2023-07-03T10:29:34.042Z,65.5
2023-07-03T10:30:43.158Z,65
2023-07-03T10:31:52.322Z,66
2023-07-03T10:33:01.564Z,66.5
2023-07-03T10:34:10.684Z,67
2023-07-03T10:35:19.937Z,65
2023-07-03T10:36:29.181Z,66.5
2023-07-03T10:37:38.261Z,66.5
2023-07-03T10:38:47.581Z,68.5
2023-07-03T10:39:56.764Z,67.5
2023-07-03T10:41:05.710Z,66
2023-07-03T10:42:13.900Z,65.5
2023-07-03T10:44:32.236Z,65.5
2023-07-03T10:45:41.423Z,67
2023-07-03T10:46:50.597Z,67.5
2023-07-03T10:47:59.759Z,66.5
2023-07-03T10:49:08.924Z,65.5
2023-07-03T10:50:18.128Z,67
2023-07-03T10:51:27.307Z,65.5
2023-07-03T10:52:36.633Z,65.5
2023-07-03T10:53:45.613Z,66
2023-07-03T10:54:55.057Z,65
2023-07-03T10:56:03.966Z,65
2023-07-03T10:57:12.175Z,66
2023-07-03T10:58:21.363Z,66
2023-07-03T10:59:30.497Z,64
2023-07-03T11:00:39.687Z,65
2023-07-03T11:01:47.991Z,64.5
2023-07-03T11:02:57.135Z,66
2023-07-03T11:04:05.289Z,68.5
2023-07-03T11:05:13.536Z,65.5
2023-07-03T11:06:22.675Z,67
2023-07-03T11:07:31.773Z,67
2023-07-03T11:08:40.975Z,66.5
2023-07-03T11:09:50.125Z,68
2023-07-03T11:10:59.299Z,68
2023-07-03T11:12:08.467Z,66.5
2023-07-03T11:13:17.648Z,67
2023-07-03T11:14:26.963Z,70
2023-07-03T11:15:36.080Z,68.5
2023-07-03T11:16:45.363Z,69
2023-07-03T11:17:54.520Z,68
2023-07-03T11:19:03.509Z,69
2023-07-03T11:20:11.736Z,68
2023-07-03T11:21:20.865Z,68.5
2023-07-03T11:22:30.036Z,69
2023-07-03T11:23:39.213Z,69
2023-07-03T11:24:48.376Z,70.5
2023-07-03T11:25:57.546Z,70
2023-07-03T11:27:06.711Z,70.5
2023-07-03T11:28:15.943Z,70.5
2023-07-03T11:29:25.120Z,70.5
2023-07-03T11:30:34.278Z,72.5
2023-07-03T11:31:42.664Z,71
2023-07-03T11:32:51.658Z,72
2023-07-03T11:34:00.782Z,70.5
2023-07-03T11:35:09.941Z,69
2023-07-03T11:36:19.113Z,70.5
2023-07-03T11:37:28.289Z,69.5
2023-07-03T11:38:37.471Z,68
2023-07-03T11:39:46.655Z,68
2023-07-03T11:40:55.820Z,65.5
2023-07-03T11:42:04.985Z,68
2023-07-03T11:43:14.148Z,66.5
2023-07-03T11:44:23.340Z,65.5
2023-07-03T11:45:32.492Z,66.5
2023-07-03T11:46:41.673Z,67.5
2023-07-03T11:47:49.868Z,65.5
2023-07-03T11:48:59.030Z,65
2023-07-03T11:51:17.383Z,66.5
2023-07-03T11:52:26.553Z,67
2023-07-03T11:53:35.731Z,65
2023-07-03T11:54:44.929Z,64.5
2023-07-03T11:55:54.074Z,63
2023-07-03T11:57:03.246Z,64
2023-07-03T11:58:12.402Z,64
2023-07-03T11:59:21.598Z,63
2023-07-03T12:01:39.980Z,64.5
2023-07-03T12:02:49.209Z,63
2023-07-03T12:03:57.517Z,62
2023-07-03T12:05:06.476Z,63.5
2023-07-03T12:06:15.646Z,64
2023-07-03T12:07:24.811Z,61.5
2023-07-03T12:09:43.154Z,64
2023-07-03T12:10:51.380Z,65.5
2023-07-03T12:11:59.530Z,66.5
2023-07-03T12:13:08.712Z,67
2023-07-03T12:14:17.878Z,68.5
2023-07-03T12:15:27.053Z,67
2023-07-03T12:16:36.232Z,67.5
2023-07-03T12:17:45.409Z,67.5
2023-07-03T12:18:54.583Z,67.5
2023-07-03T12:20:03.754Z,67.5
2023-07-03T12:21:12.924Z,67.5
2023-07-03T12:22:22.091Z,65.5
2023-07-03T12:23:30.288Z,67
2023-07-03T12:24:38.469Z,64.5
2023-07-03T12:25:47.656Z,65
2023-07-03T12:26:56.828Z,65
2023-07-03T12:28:05.990Z,65
2023-07-03T12:29:15.166Z,64.5
2023-07-03T12:30:24.391Z,66
2023-07-03T12:31:33.521Z,65
2023-07-03T12:32:42.682Z,65.5
2023-07-03T12:33:51.854Z,66.5
2023-07-03T12:35:01.024Z,64
2023-07-03T12:36:10.197Z,63
2023-07-03T12:37:19.377Z,62
2023-07-03T12:38:28.548Z,61.5
2023-07-03T12:39:36.736Z,60
2023-07-03T12:40:45.901Z,60.5
2023-07-03T12:41:55.094Z,61
2023-07-03T12:43:04.250Z,62.5
2023-07-03T12:44:13.415Z,60
2023-07-03T12:45:22.584Z,60.5
2023-07-03T12:46:30.806Z,61
2023-07-03T12:47:38.975Z,60.5
2023-07-03T12:48:48.156Z,60
2023-07-03T12:49:57.305Z,59.5
2023-07-03T12:51:06.503Z,58.5
2023-07-03T12:52:15.735Z,57
2023-07-03T12:53:24.979Z,59.5
2023-07-03T12:54:34.079Z,57.5
2023-07-03T12:55:43.205Z,56.5
2023-07-03T12:56:52.357Z,58
2023-07-03T12:58:01.532Z,59.5
2023-07-03T12:59:10.701Z,56.5
2023-07-03T13:00:19.880Z,58.5
2023-07-03T13:01:29.048Z,58
2023-07-03T13:02:37.249Z,56
2023-07-03T13:03:46.410Z,58.5
2023-07-03T13:04:55.585Z,57.5
2023-07-03T13:06:04.762Z,58.5
2023-07-03T13:07:13.933Z,57
2023-07-03T13:08:23.099Z,57.5
2023-07-03T13:09:32.265Z,59
2023-07-03T13:10:41.448Z,58
2023-07-03T13:11:50.616Z,59
2023-07-03T13:12:59.784Z,58.5
2023-07-03T13:14:08.965Z,58
2023-07-03T13:15:18.143Z,58
2023-07-03T13:16:26.330Z,58
2023-07-03T13:17:34.526Z,58.5
2023-07-03T13:18:42.712Z,59
2023-07-03T13:19:51.913Z,59
2023-07-03T13:21:01.050Z,58.5
2023-07-03T13:23:19.394Z,58.5
2023-07-03T13:24:28.589Z,60
2023-07-03T13:25:37.758Z,60
2023-07-03T13:26:46.915Z,61.5
2023-07-03T13:27:56.280Z,60.5
2023-07-03T13:29:05.265Z,60.5
2023-07-03T13:30:14.448Z,61
2023-07-03T13:31:23.606Z,60.5
2023-07-03T13:32:32.775Z,60
2023-07-03T13:33:40.961Z,62.5
2023-07-03T13:34:50.144Z,61
2023-07-03T13:35:59.320Z,62
2023-07-03T13:37:08.502Z,63
2023-07-03T13:38:17.656Z,63
2023-07-03T13:39:26.839Z,61.5
2023-07-03T13:40:36.007Z,62.5
2023-07-03T13:41:45.184Z,62
2023-07-03T13:42:54.373Z,63
2023-07-03T13:44:03.526Z,61
2023-07-03T13:45:12.695Z,61
2023-07-03T13:46:21.882Z,60.5
2023-07-03T13:47:31.065Z,60.5
2023-07-03T13:48:39.230Z,61
2023-07-03T13:49:48.410Z,59.5
2023-07-03T13:50:57.577Z,59.5
2023-07-03T13:52:06.752Z,59
2023-07-03T13:53:15.923Z,60
2023-07-03T13:54:25.104Z,59.5
2023-07-03T13:55:34.272Z,59.5
2023-07-03T13:56:43.441Z,59.5
2023-07-03T13:57:52.623Z,60
2023-07-03T13:59:01.807Z,60.5
2023-07-03T14:01:20.130Z,61.5
2023-07-03T14:02:29.312Z,61.5
2023-07-03T14:03:37.541Z,61.5
2023-07-03T14:04:46.669Z,62.5
2023-07-03T14:05:55.841Z,64
2023-07-03T14:08:14.192Z,61.5
2023-07-03T14:09:23.356Z,63
2023-07-03T14:10:32.530Z,64
2023-07-03T14:11:41.698Z,63.5
2023-07-03T14:12:50.880Z,64
2023-07-03T14:14:00.066Z,62.5
2023-07-03T14:15:09.214Z,62
2023-07-03T14:16:18.386Z,63
2023-07-03T14:17:27.563Z,62.5
2023-07-03T14:18:35.749Z,64
2023-07-03T14:19:43.981Z,65
2023-07-03T14:20:53.116Z,65.5
2023-07-03T14:22:02.289Z,63.5
2023-07-03T14:23:11.471Z,64
2023-07-03T14:24:20.628Z,65
2023-07-03T14:25:29.816Z,64
2023-07-03T14:26:38.972Z,66
2023-07-03T14:27:48.145Z,65.5
2023-07-03T14:28:57.319Z,65
2023-07-03T14:30:06.490Z,65.5
2023-07-03T14:31:15.675Z,65
2023-07-03T14:32:24.834Z,64
2023-07-03T14:33:34.017Z,65
2023-07-03T14:34:42.192Z,63.5
2023-07-03T14:35:51.370Z,63
2023-07-03T14:37:00.546Z,62.5
2023-07-03T14:38:09.723Z,61.5
2023-07-03T14:39:18.891Z,61
2023-07-03T14:40:28.074Z,61
2023-07-03T14:41:37.248Z,61.5
2023-07-03T14:42:46.407Z,60.5
2023-07-03T14:43:55.572Z,60
2023-07-03T14:45:04.761Z,59.5
2023-07-03T14:46:13.925Z,61.5
2023-07-03T14:47:23.104Z,60
2023-07-03T14:48:32.267Z,60.5
2023-07-03T14:49:40.460Z,60
2023-07-03T14:50:49.624Z,60
2023-07-03T14:51:58.800Z,59.5
2023-07-03T14:53:07.983Z,59.5
2023-07-03T14:54:17.146Z,59.5
2023-07-03T14:55:26.325Z,60.5
2023-07-03T14:56:35.489Z,59.5
2023-07-03T14:57:44.669Z,60
2023-07-03T14:58:52.859Z,61.5
2023-07-03T15:00:01.048Z,60.5
2023-07-03T15:01:10.212Z,61.5
2023-07-03T15:02:19.387Z,59
2023-07-03T15:03:28.571Z,60.5
2023-07-03T15:04:37.722Z,59
2023-07-03T15:05:46.911Z,60.5
2023-07-03T15:06:56.085Z,61.5
2023-07-03T15:08:05.253Z,60
2023-07-03T15:09:14.425Z,60.5
2023-07-03T15:10:23.611Z,60
2023-07-03T15:11:32.774Z,60.5
2023-07-03T15:12:41.945Z,61
2023-07-03T15:13:51.114Z,61
2023-07-03T15:14:59.303Z,60
2023-07-03T15:16:08.474Z,61.5
2023-07-03T15:17:17.655Z,61.5
2023-07-03T15:18:26.820Z,59
2023-07-03T15:19:36.016Z,60
2023-07-03T15:20:45.161Z,61.5
2023-07-03T15:21:53.364Z,60.5
2023-07-03T15:23:01.565Z,60
2023-07-03T15:24:09.762Z,61
2023-07-03T15:25:18.930Z,59
2023-07-03T15:26:28.099Z,58.5
2023-07-03T15:27:37.271Z,58
2023-07-03T15:28:46.444Z,57
2023-07-03T15:29:55.617Z,58
2023-07-03T15:31:04.775Z,58
2023-07-03T15:32:13.958Z,58.5
2023-07-03T15:33:23.151Z,57
2023-07-03T15:34:32.308Z,57
2023-07-03T15:35:41.470Z,58.5
2023-07-03T15:36:50.643Z,57.5
2023-07-03T15:37:59.818Z,57.5
2023-07-03T15:39:08.011Z,57.5
2023-07-03T15:40:17.200Z,57.5
2023-07-03T15:41:26.357Z,59
2023-07-03T15:42:35.533Z,59
2023-07-03T15:43:44.695Z,57.5
2023-07-03T15:44:53.872Z,59
2023-07-03T15:46:03.046Z,59
2023-07-03T15:47:12.227Z,59
2023-07-03T15:48:21.384Z,57.5
2023-07-03T15:49:30.556Z,58.5
2023-07-03T15:50:39.732Z,59
2023-07-03T15:51:48.905Z,57.5
2023-07-03T15:52:58.075Z,57.5
2023-07-03T15:54:06.268Z,58
2023-07-03T15:56:24.621Z,57
2023-07-03T15:57:33.783Z,58
2023-07-03T15:58:42.953Z,59
2023-07-03T15:59:52.128Z,57.5
2023-07-03T16:01:01.298Z,58.5
2023-07-03T16:02:10.467Z,59
2023-07-03T16:03:19.640Z,59
2023-07-03T16:04:28.865Z,59
2023-07-03T16:05:37.988Z,58.5
2023-07-03T16:06:47.160Z,59
2023-07-03T16:09:05.506Z,58.5
2023-07-03T16:10:13.707Z,59
2023-07-03T16:11:22.872Z,60
2023-07-03T16:12:32.038Z,59.5
2023-07-03T16:13:41.212Z,59
2023-07-03T16:14:50.383Z,59
2023-07-03T16:15:59.563Z,60
2023-07-03T16:17:08.725Z,60
2023-07-03T16:18:17.892Z,59.5
2023-07-03T16:19:27.064Z,60.5
2023-07-03T16:20:36.251Z,59
2023-07-03T16:21:45.419Z,60.5
2023-07-03T16:22:54.585Z,59.5
2023-07-03T16:24:03.757Z,59.5
2023-07-03T16:25:11.953Z,61.5